EXS89PK EGCC-LIRP
Flight info
| Callsign | EXS89PK |
|---|---|
| Flight time | 2h 5m |
| Altitude | 35000 |
| Route | LISTO P18 TELBA L151 MID UL612 OGULO DCT OKASI DCT OKEKO DCT MOU DCT MADIV DCT MOKIP DCT TUFTA DCT GEVEA DCT MOBLO DCT LURAG DCT OBUXA DCT UNITA DCT TIDKA L50 KONER |
| Aircraft | B738/M-SDE2E3FGHIRWXY/LB1 |
Departure
| Time | 2026-05-05 13:34 |
|---|---|
| Airport | Manchester Airport (EGCC) |
Arrival
| Time | 2026-05-05 15:39 |
|---|---|
| Airport | Pisa International Airport (LIRP) |
| Time | Latitude | Longitude | Altitude | Speed | Heading |
|---|---|---|---|---|---|
| 2026-05-05 13:02 | 53.36440 | -2.27737 | 254 ft | 0 kts | 45° |
| 2026-05-05 13:21 | 53.36432 | -2.27750 | 254 ft | 4 kts | 45° |
| 2026-05-05 13:21 | 53.36412 | -2.27782 | 254 ft | 4 kts | 45° |
| 2026-05-05 13:21 | 53.36397 | -2.27807 | 254 ft | 4 kts | 36° |
| 2026-05-05 13:22 | 53.36375 | -2.27823 | 254 ft | 4 kts | 349° |
| 2026-05-05 13:22 | 53.36355 | -2.27803 | 254 ft | 4 kts | 313° |
| 2026-05-05 13:22 | 53.36345 | -2.27773 | 254 ft | 3 kts | 284° |
| 2026-05-05 13:22 | 53.36340 | -2.27742 | 254 ft | 0 kts | 284° |
| 2026-05-05 13:27 | 53.36349 | -2.27786 | 254 ft | 9 kts | 297° |
| 2026-05-05 13:28 | 53.36394 | -2.27887 | 254 ft | 12 kts | 283° |
| 2026-05-05 13:28 | 53.36349 | -2.28004 | 254 ft | 14 kts | 223° |
| 2026-05-05 13:28 | 53.36238 | -2.28074 | 254 ft | 20 kts | 181° |
| 2026-05-05 13:28 | 53.36172 | -2.28001 | 254 ft | 10 kts | 132° |
| 2026-05-05 13:29 | 53.36119 | -2.27925 | 254 ft | 11 kts | 143° |
| 2026-05-05 13:29 | 53.36037 | -2.27887 | 254 ft | 14 kts | 210° |
| 2026-05-05 13:29 | 53.35952 | -2.27861 | 254 ft | 14 kts | 155° |
| 2026-05-05 13:29 | 53.35826 | -2.27861 | 250 ft | 23 kts | 186° |
| 2026-05-05 13:30 | 53.35668 | -2.27889 | 242 ft | 16 kts | 187° |
| 2026-05-05 13:30 | 53.35593 | -2.27967 | 238 ft | 14 kts | 232° |
| 2026-05-05 13:30 | 53.35510 | -2.28109 | 233 ft | 20 kts | 213° |
| 2026-05-05 13:30 | 53.35377 | -2.28170 | 234 ft | 20 kts | 189° |
| 2026-05-05 13:31 | 53.35243 | -2.28286 | 231 ft | 26 kts | 223° |
| 2026-05-05 13:31 | 53.35119 | -2.28535 | 226 ft | 28 kts | 231° |
| 2026-05-05 13:31 | 53.34997 | -2.28779 | 225 ft | 27 kts | 227° |
| 2026-05-05 13:31 | 53.34871 | -2.28994 | 219 ft | 25 kts | 227° |
| 2026-05-05 13:32 | 53.34761 | -2.29206 | 219 ft | 23 kts | 231° |
| 2026-05-05 13:32 | 53.34716 | -2.29294 | 220 ft | 1 kts | 221° |
| 2026-05-05 13:32 | 53.34684 | -2.29326 | 213 ft | 10 kts | 203° |
| 2026-05-05 13:32 | 53.34598 | -2.29338 | 218 ft | 15 kts | 165° |
| 2026-05-05 13:33 | 53.34546 | -2.29216 | 213 ft | 13 kts | 72° |
| 2026-05-05 13:33 | 53.34590 | -2.29117 | 217 ft | 10 kts | 51° |
| 2026-05-05 13:33 | 53.34650 | -2.28994 | 222 ft | 31 kts | 50° |
| 2026-05-05 13:33 | 53.34933 | -2.28409 | 233 ft | 97 kts | 51° |
| 2026-05-05 13:34 | 53.35487 | -2.27262 | 249 ft | 153 kts | 50° |
| 2026-05-05 13:34 | 53.36244 | -2.25716 | 541 ft | 181 kts | 48° |
| 2026-05-05 13:34 | 53.37043 | -2.24088 | 1335 ft | 184 kts | 48° |
| 2026-05-05 13:34 | 53.37649 | -2.22209 | 2186 ft | 191 kts | 75° |
| 2026-05-05 13:35 | 53.37523 | -2.19870 | 2516 ft | 220 kts | 115° |
| 2026-05-05 13:35 | 53.36402 | -2.17999 | 2861 ft | 239 kts | 147° |
| 2026-05-05 13:35 | 53.34926 | -2.16622 | 3372 ft | 249 kts | 159° |
| 2026-05-05 13:35 | 53.33158 | -2.16448 | 3743 ft | 265 kts | 191° |
| 2026-05-05 13:36 | 53.31313 | -2.16999 | 4436 ft | 270 kts | 188° |
| 2026-05-05 13:36 | 53.29438 | -2.17415 | 5067 ft | 275 kts | 187° |
| 2026-05-05 13:36 | 53.27574 | -2.17770 | 5991 ft | 273 kts | 186° |
| 2026-05-05 13:36 | 53.25669 | -2.18105 | 6777 ft | 277 kts | 186° |
| 2026-05-05 13:37 | 53.23743 | -2.18419 | 7542 ft | 280 kts | 186° |
| 2026-05-05 13:37 | 53.21796 | -2.18729 | 8297 ft | 284 kts | 187° |
| 2026-05-05 13:37 | 53.19810 | -2.19042 | 9040 ft | 287 kts | 186° |
| 2026-05-05 13:37 | 53.17818 | -2.19356 | 9883 ft | 288 kts | 187° |
| 2026-05-05 13:38 | 53.15797 | -2.19674 | 10452 ft | 298 kts | 187° |
| 2026-05-05 13:38 | 53.13651 | -2.20015 | 10638 ft | 322 kts | 187° |
| 2026-05-05 13:38 | 53.11376 | -2.20374 | 10813 ft | 343 kts | 187° |
| 2026-05-05 13:38 | 53.08925 | -2.20759 | 10983 ft | 364 kts | 187° |
| 2026-05-05 13:39 | 53.06340 | -2.21162 | 11155 ft | 383 kts | 187° |
| 2026-05-05 13:39 | 53.03650 | -2.21580 | 11577 ft | 392 kts | 187° |
| 2026-05-05 13:39 | 53.00924 | -2.22004 | 12207 ft | 395 kts | 187° |
| 2026-05-05 13:39 | 52.98179 | -2.22429 | 12873 ft | 397 kts | 187° |
| 2026-05-05 13:40 | 52.95420 | -2.22857 | 13584 ft | 399 kts | 187° |
| 2026-05-05 13:40 | 52.92649 | -2.23287 | 14183 ft | 402 kts | 187° |
| 2026-05-05 13:40 | 52.89894 | -2.23713 | 14753 ft | 404 kts | 187° |
| 2026-05-05 13:40 | 52.87085 | -2.24148 | 15345 ft | 406 kts | 187° |
| 2026-05-05 13:41 | 52.84285 | -2.24824 | 15907 ft | 407 kts | 194° |
| 2026-05-05 13:41 | 52.81524 | -2.25921 | 16464 ft | 409 kts | 196° |
| 2026-05-05 13:41 | 52.78753 | -2.27076 | 17023 ft | 412 kts | 196° |
| 2026-05-05 13:41 | 52.75961 | -2.28206 | 17571 ft | 415 kts | 195° |
| 2026-05-05 13:42 | 52.73143 | -2.29304 | 18112 ft | 417 kts | 195° |
| 2026-05-05 13:42 | 52.70306 | -2.30375 | 18566 ft | 421 kts | 193° |
| 2026-05-05 13:42 | 52.67405 | -2.30672 | 18968 ft | 429 kts | 175° |
| 2026-05-05 13:42 | 52.64499 | -2.29520 | 19444 ft | 434 kts | 160° |
| 2026-05-05 13:43 | 52.61845 | -2.27118 | 19929 ft | 439 kts | 148° |
| 2026-05-05 13:43 | 52.59320 | -2.24259 | 20354 ft | 442 kts | 147° |
| 2026-05-05 13:43 | 52.56780 | -2.21383 | 20742 ft | 445 kts | 148° |
| 2026-05-05 13:43 | 52.54211 | -2.18508 | 21157 ft | 448 kts | 148° |
| 2026-05-05 13:44 | 52.51618 | -2.15648 | 21581 ft | 450 kts | 148° |
| 2026-05-05 13:44 | 52.49012 | -2.12801 | 21977 ft | 452 kts | 148° |
| 2026-05-05 13:44 | 52.46383 | -2.09944 | 22348 ft | 455 kts | 148° |
| 2026-05-05 13:44 | 52.43771 | -2.07112 | 22713 ft | 457 kts | 148° |
| 2026-05-05 13:45 | 52.41112 | -2.04232 | 23109 ft | 459 kts | 148° |
| 2026-05-05 13:45 | 52.38442 | -2.01340 | 23477 ft | 461 kts | 148° |
| 2026-05-05 13:45 | 52.35757 | -1.98435 | 23769 ft | 464 kts | 148° |
| 2026-05-05 13:45 | 52.33063 | -1.95530 | 24174 ft | 463 kts | 148° |
| 2026-05-05 13:46 | 52.30379 | -1.92638 | 24604 ft | 462 kts | 148° |
| 2026-05-05 13:46 | 52.27691 | -1.89746 | 24883 ft | 464 kts | 148° |
| 2026-05-05 13:46 | 52.24989 | -1.86845 | 25122 ft | 467 kts | 148° |
| 2026-05-05 13:46 | 52.22272 | -1.83933 | 25427 ft | 468 kts | 148° |
| 2026-05-05 13:47 | 52.19586 | -1.81056 | 25721 ft | 469 kts | 148° |
| 2026-05-05 13:47 | 52.16855 | -1.78134 | 26018 ft | 470 kts | 148° |
| 2026-05-05 13:47 | 52.14124 | -1.75215 | 26409 ft | 469 kts | 149° |
| 2026-05-05 13:47 | 52.11408 | -1.72318 | 26840 ft | 466 kts | 149° |
| 2026-05-05 13:48 | 52.08698 | -1.69431 | 27287 ft | 464 kts | 149° |
| 2026-05-05 13:48 | 52.06002 | -1.66561 | 27672 ft | 463 kts | 149° |
| 2026-05-05 13:48 | 52.03309 | -1.63693 | 28036 ft | 463 kts | 149° |
| 2026-05-05 13:48 | 52.00617 | -1.60831 | 28403 ft | 462 kts | 149° |
| 2026-05-05 13:49 | 51.97961 | -1.58022 | 28791 ft | 461 kts | 149° |
| 2026-05-05 13:49 | 51.95276 | -1.55191 | 29191 ft | 460 kts | 149° |
| 2026-05-05 13:49 | 51.92599 | -1.52371 | 29603 ft | 458 kts | 149° |
| 2026-05-05 13:49 | 51.89928 | -1.49559 | 29992 ft | 458 kts | 149° |
| 2026-05-05 13:50 | 51.87262 | -1.46756 | 30313 ft | 457 kts | 149° |
| 2026-05-05 13:50 | 51.84612 | -1.43972 | 30847 ft | 449 kts | 149° |
| 2026-05-05 13:50 | 51.82021 | -1.41249 | 31509 ft | 441 kts | 149° |
| 2026-05-05 13:50 | 51.79443 | -1.38547 | 31682 ft | 444 kts | 149° |
| 2026-05-05 13:51 | 51.74259 | -1.33131 | 32016 ft | 448 kts | 149° |
| 2026-05-05 13:51 | 51.71649 | -1.30408 | 32378 ft | 445 kts | 149° |
| 2026-05-05 13:51 | 51.69056 | -1.27706 | 32739 ft | 443 kts | 149° |
| 2026-05-05 13:52 | 51.66467 | -1.25012 | 33023 ft | 443 kts | 149° |
| 2026-05-05 13:52 | 51.63876 | -1.22319 | 33258 ft | 443 kts | 149° |
| 2026-05-05 13:52 | 51.61280 | -1.19625 | 33526 ft | 443 kts | 149° |
| 2026-05-05 13:52 | 51.58693 | -1.16942 | 33822 ft | 442 kts | 149° |
| 2026-05-05 13:53 | 51.56114 | -1.14271 | 34083 ft | 441 kts | 149° |
| 2026-05-05 13:53 | 51.53559 | -1.11630 | 34205 ft | 443 kts | 149° |
| 2026-05-05 13:53 | 51.50961 | -1.08946 | 34320 ft | 445 kts | 149° |
| 2026-05-05 13:53 | 51.48356 | -1.06261 | 34521 ft | 445 kts | 149° |
| 2026-05-05 13:54 | 51.45749 | -1.03577 | 34751 ft | 444 kts | 149° |
| 2026-05-05 13:54 | 51.43144 | -1.00901 | 34918 ft | 445 kts | 149° |
| 2026-05-05 13:54 | 51.37902 | -0.95528 | 34941 ft | 449 kts | 149° |
| 2026-05-05 13:55 | 51.32646 | -0.90152 | 34958 ft | 448 kts | 149° |
| 2026-05-05 13:55 | 51.27423 | -0.84822 | 34971 ft | 448 kts | 149° |
| 2026-05-05 13:56 | 51.22163 | -0.79470 | 34968 ft | 448 kts | 149° |
| 2026-05-05 13:56 | 51.16905 | -0.74134 | 34964 ft | 448 kts | 149° |
| 2026-05-05 13:57 | 51.11643 | -0.68807 | 34961 ft | 448 kts | 149° |
| 2026-05-05 13:57 | 51.06414 | -0.63529 | 34952 ft | 448 kts | 149° |
| 2026-05-05 13:58 | 51.01189 | -0.58103 | 34939 ft | 449 kts | 148° |
| 2026-05-05 13:58 | 50.96022 | -0.52540 | 34941 ft | 449 kts | 147° |
| 2026-05-05 13:59 | 50.88264 | -0.44246 | 34941 ft | 449 kts | 148° |
| 2026-05-05 14:00 | 50.81358 | -0.36929 | 34937 ft | 449 kts | 148° |
| 2026-05-05 14:00 | 50.75329 | -0.30563 | 34939 ft | 449 kts | 148° |
| 2026-05-05 14:01 | 50.70136 | -0.25095 | 34939 ft | 449 kts | 148° |
| 2026-05-05 14:01 | 50.64978 | -0.19685 | 34938 ft | 448 kts | 148° |
| 2026-05-05 14:02 | 50.59777 | -0.14241 | 34935 ft | 448 kts | 147° |
| 2026-05-05 14:02 | 50.54580 | -0.08814 | 34934 ft | 448 kts | 148° |
| 2026-05-05 14:03 | 50.49383 | -0.03399 | 34935 ft | 448 kts | 148° |
| 2026-05-05 14:03 | 50.44216 | 0.01968 | 34932 ft | 448 kts | 148° |
| 2026-05-05 14:04 | 50.39012 | 0.07358 | 34939 ft | 448 kts | 148° |
| 2026-05-05 14:04 | 50.33819 | 0.12720 | 34931 ft | 447 kts | 148° |
| 2026-05-05 14:05 | 50.28662 | 0.18031 | 34933 ft | 446 kts | 148° |
| 2026-05-05 14:05 | 50.23485 | 0.23354 | 34925 ft | 445 kts | 148° |
| 2026-05-05 14:06 | 50.18312 | 0.28661 | 34939 ft | 444 kts | 148° |
| 2026-05-05 14:06 | 50.13155 | 0.33960 | 34922 ft | 443 kts | 148° |
| 2026-05-05 14:07 | 50.08016 | 0.39233 | 34921 ft | 441 kts | 148° |
| 2026-05-05 14:07 | 50.02927 | 0.44438 | 34916 ft | 440 kts | 148° |
| 2026-05-05 14:08 | 49.97814 | 0.49658 | 34922 ft | 439 kts | 148° |
| 2026-05-05 14:08 | 49.92720 | 0.54840 | 34907 ft | 437 kts | 148° |
| 2026-05-05 14:09 | 49.87634 | 0.60005 | 34905 ft | 436 kts | 148° |
| 2026-05-05 14:09 | 49.82746 | 0.65443 | 34907 ft | 435 kts | 142° |
| 2026-05-05 14:10 | 49.78076 | 0.71413 | 34896 ft | 435 kts | 141° |
| 2026-05-05 14:10 | 49.73418 | 0.77375 | 34907 ft | 435 kts | 141° |
| 2026-05-05 14:11 | 49.68734 | 0.83279 | 34890 ft | 435 kts | 142° |
| 2026-05-05 14:11 | 49.64063 | 0.89119 | 34892 ft | 435 kts | 142° |
| 2026-05-05 14:12 | 49.59353 | 0.94988 | 34881 ft | 436 kts | 142° |
| 2026-05-05 14:12 | 49.54625 | 1.00866 | 34885 ft | 437 kts | 142° |
| 2026-05-05 14:13 | 49.49919 | 1.06703 | 34892 ft | 438 kts | 142° |
| 2026-05-05 14:13 | 49.45166 | 1.12587 | 34888 ft | 439 kts | 142° |
| 2026-05-05 14:14 | 49.40403 | 1.18465 | 34884 ft | 439 kts | 142° |
| 2026-05-05 14:14 | 49.35634 | 1.24331 | 34887 ft | 439 kts | 142° |
| 2026-05-05 14:15 | 49.30896 | 1.30145 | 34880 ft | 439 kts | 142° |
| 2026-05-05 14:15 | 49.26126 | 1.35986 | 34877 ft | 439 kts | 142° |
| 2026-05-05 14:16 | 49.21359 | 1.41810 | 34851 ft | 438 kts | 142° |
| 2026-05-05 14:16 | 49.16598 | 1.47611 | 34856 ft | 437 kts | 142° |
| 2026-05-05 14:17 | 49.11877 | 1.53351 | 34852 ft | 437 kts | 142° |
| 2026-05-05 14:17 | 49.07123 | 1.59115 | 34852 ft | 436 kts | 142° |
| 2026-05-05 14:18 | 49.02368 | 1.64865 | 34842 ft | 436 kts | 141° |
| 2026-05-05 14:18 | 48.97617 | 1.70597 | 34839 ft | 435 kts | 141° |
| 2026-05-05 14:19 | 48.92895 | 1.76281 | 34821 ft | 437 kts | 142° |
| 2026-05-05 14:19 | 48.88126 | 1.82004 | 34829 ft | 437 kts | 142° |
| 2026-05-05 14:20 | 48.83354 | 1.87719 | 34833 ft | 437 kts | 142° |
| 2026-05-05 14:20 | 48.78576 | 1.93426 | 34831 ft | 437 kts | 142° |
| 2026-05-05 14:21 | 48.73821 | 1.99092 | 34833 ft | 438 kts | 142° |
| 2026-05-05 14:21 | 48.69025 | 2.04794 | 34842 ft | 439 kts | 142° |
| 2026-05-05 14:22 | 48.64202 | 2.10514 | 34831 ft | 441 kts | 142° |
| 2026-05-05 14:22 | 48.59360 | 2.16243 | 34822 ft | 443 kts | 142° |
| 2026-05-05 14:23 | 48.54709 | 2.22206 | 34822 ft | 441 kts | 135° |
| 2026-05-05 14:23 | 48.50427 | 2.28807 | 34807 ft | 439 kts | 134° |
| 2026-05-05 14:24 | 48.46164 | 2.35399 | 34823 ft | 439 kts | 135° |
| 2026-05-05 14:24 | 48.41857 | 2.41943 | 34800 ft | 440 kts | 135° |
| 2026-05-05 14:25 | 48.37540 | 2.48447 | 34817 ft | 439 kts | 135° |
| 2026-05-05 14:25 | 48.33250 | 2.54901 | 34804 ft | 439 kts | 135° |
| 2026-05-05 14:26 | 48.28854 | 2.61256 | 34805 ft | 439 kts | 142° |
| 2026-05-05 14:26 | 48.23566 | 2.65891 | 34809 ft | 442 kts | 156° |
| 2026-05-05 14:27 | 48.18037 | 2.69782 | 34816 ft | 442 kts | 151° |
| 2026-05-05 14:27 | 48.12670 | 2.74272 | 34799 ft | 442 kts | 151° |
| 2026-05-05 14:28 | 48.07239 | 2.78584 | 34796 ft | 442 kts | 155° |
| 2026-05-05 14:28 | 48.01585 | 2.82229 | 34808 ft | 442 kts | 157° |
| 2026-05-05 14:29 | 47.95929 | 2.85720 | 34817 ft | 444 kts | 157° |
| 2026-05-05 14:29 | 47.90222 | 2.89291 | 34796 ft | 445 kts | 156° |
| 2026-05-05 14:30 | 47.84523 | 2.92891 | 34810 ft | 445 kts | 156° |
| 2026-05-05 14:30 | 47.78831 | 2.96488 | 34802 ft | 444 kts | 157° |
| 2026-05-05 14:31 | 47.73150 | 3.00069 | 34809 ft | 443 kts | 158° |
| 2026-05-05 14:31 | 47.67514 | 3.03611 | 34809 ft | 443 kts | 158° |
| 2026-05-05 14:32 | 47.61843 | 3.07167 | 34812 ft | 443 kts | 158° |
| 2026-05-05 14:32 | 47.56173 | 3.10715 | 34820 ft | 442 kts | 158° |
| 2026-05-05 14:33 | 47.50540 | 3.14227 | 34825 ft | 442 kts | 158° |
| 2026-05-05 14:33 | 47.44863 | 3.17755 | 34821 ft | 443 kts | 158° |
| 2026-05-05 14:34 | 47.39185 | 3.21279 | 34823 ft | 443 kts | 158° |
| 2026-05-05 14:34 | 47.33503 | 3.24797 | 34829 ft | 443 kts | 158° |
| 2026-05-05 14:35 | 47.27818 | 3.28309 | 34825 ft | 443 kts | 159° |
| 2026-05-05 14:35 | 47.22166 | 3.31793 | 34819 ft | 443 kts | 159° |
| 2026-05-05 14:36 | 47.16471 | 3.35295 | 34838 ft | 444 kts | 159° |
| 2026-05-05 14:36 | 47.10773 | 3.38791 | 34838 ft | 444 kts | 159° |
| 2026-05-05 14:37 | 47.05098 | 3.42264 | 34834 ft | 445 kts | 159° |
| 2026-05-05 14:37 | 46.99377 | 3.45758 | 34833 ft | 446 kts | 159° |
| 2026-05-05 14:38 | 46.93650 | 3.49248 | 34839 ft | 446 kts | 159° |
| 2026-05-05 14:38 | 46.88889 | 3.52143 | 34840 ft | 446 kts | 159° |
| 2026-05-05 14:39 | 46.82221 | 3.56188 | 34848 ft | 446 kts | 159° |
| 2026-05-05 14:39 | 46.76490 | 3.59657 | 34841 ft | 446 kts | 160° |
| 2026-05-05 14:40 | 46.73710 | 3.61693 | 34825 ft | 450 kts | 146° |
| 2026-05-05 14:40 | 46.71453 | 3.64850 | 34866 ft | 454 kts | 130° |
| 2026-05-05 14:40 | 46.69077 | 3.71696 | 34858 ft | 463 kts | 108° |
| 2026-05-05 14:41 | 46.67390 | 3.82345 | 34851 ft | 465 kts | 105° |
| 2026-05-05 14:41 | 46.65882 | 3.91503 | 34849 ft | 465 kts | 107° |
| 2026-05-05 14:42 | 46.64567 | 3.99087 | 34850 ft | 466 kts | 107° |
| 2026-05-05 14:42 | 46.62973 | 4.08231 | 34836 ft | 466 kts | 108° |
| 2026-05-05 14:43 | 46.61379 | 4.17366 | 34857 ft | 467 kts | 108° |
| 2026-05-05 14:43 | 46.59775 | 4.26520 | 34854 ft | 467 kts | 108° |
| 2026-05-05 14:44 | 46.58174 | 4.35614 | 34849 ft | 468 kts | 108° |
| 2026-05-05 14:44 | 46.56553 | 4.44773 | 34841 ft | 468 kts | 108° |
| 2026-05-05 14:45 | 46.54926 | 4.53920 | 34853 ft | 467 kts | 108° |
| 2026-05-05 14:45 | 46.53294 | 4.63047 | 34861 ft | 467 kts | 108° |
| 2026-05-05 14:46 | 46.51668 | 4.72099 | 34853 ft | 466 kts | 108° |
| 2026-05-05 14:46 | 46.50023 | 4.81204 | 34859 ft | 466 kts | 108° |
| 2026-05-05 14:47 | 46.48375 | 4.90289 | 34850 ft | 465 kts | 109° |
| 2026-05-05 14:47 | 46.46732 | 4.99303 | 34865 ft | 465 kts | 109° |
| 2026-05-05 14:48 | 46.45072 | 5.08362 | 34850 ft | 465 kts | 109° |
| 2026-05-05 14:48 | 46.43405 | 5.17420 | 34869 ft | 466 kts | 109° |
| 2026-05-05 14:49 | 46.41725 | 5.26506 | 34860 ft | 467 kts | 109° |
| 2026-05-05 14:49 | 46.40036 | 5.35616 | 34879 ft | 469 kts | 109° |
| 2026-05-05 14:50 | 46.38343 | 5.44699 | 34878 ft | 471 kts | 109° |
| 2026-05-05 14:50 | 46.36632 | 5.53879 | 34881 ft | 474 kts | 109° |
| 2026-05-05 14:51 | 46.34908 | 5.63105 | 34862 ft | 475 kts | 109° |
| 2026-05-05 14:51 | 46.33172 | 5.72346 | 34888 ft | 477 kts | 110° |
| 2026-05-05 14:52 | 46.31435 | 5.81549 | 34909 ft | 478 kts | 110° |
| 2026-05-05 14:52 | 46.29670 | 5.90851 | 34914 ft | 480 kts | 110° |
| 2026-05-05 14:53 | 46.27897 | 6.00160 | 34913 ft | 480 kts | 110° |
| 2026-05-05 14:53 | 46.25957 | 6.09300 | 34900 ft | 475 kts | 119° |
| 2026-05-05 14:54 | 46.22464 | 6.17195 | 34909 ft | 462 kts | 137° |
| 2026-05-05 14:54 | 46.17837 | 6.23524 | 34906 ft | 458 kts | 143° |
| 2026-05-05 14:55 | 46.13118 | 6.29696 | 34911 ft | 459 kts | 143° |
| 2026-05-05 14:55 | 46.08444 | 6.35881 | 34905 ft | 459 kts | 143° |
| 2026-05-05 14:56 | 46.03756 | 6.42122 | 34903 ft | 459 kts | 143° |
| 2026-05-05 14:56 | 45.99055 | 6.48373 | 34902 ft | 461 kts | 143° |
| 2026-05-05 14:57 | 45.94337 | 6.54629 | 34903 ft | 462 kts | 144° |
| 2026-05-05 14:57 | 45.89629 | 6.60856 | 34906 ft | 458 kts | 144° |
| 2026-05-05 14:58 | 45.84971 | 6.67003 | 34918 ft | 459 kts | 144° |
| 2026-05-05 14:58 | 45.80264 | 6.73194 | 34889 ft | 458 kts | 144° |
| 2026-05-05 14:59 | 45.75555 | 6.79345 | 34893 ft | 459 kts | 145° |
| 2026-05-05 14:59 | 45.70825 | 6.85499 | 34918 ft | 460 kts | 145° |
| 2026-05-05 15:00 | 45.66885 | 6.90620 | 34928 ft | 461 kts | 145° |
| 2026-05-05 15:00 | 45.61373 | 6.97774 | 34940 ft | 461 kts | 145° |
| 2026-05-05 15:01 | 45.56624 | 7.03921 | 34938 ft | 462 kts | 146° |
| 2026-05-05 15:01 | 45.52068 | 7.10414 | 34944 ft | 469 kts | 135° |
| 2026-05-05 15:02 | 45.48561 | 7.18285 | 34971 ft | 476 kts | 128° |
| 2026-05-05 15:02 | 45.45151 | 7.26341 | 34970 ft | 474 kts | 129° |
| 2026-05-05 15:03 | 45.41656 | 7.34270 | 34989 ft | 471 kts | 132° |
| 2026-05-05 15:03 | 45.37322 | 7.40936 | 34980 ft | 452 kts | 148° |
| 2026-05-05 15:04 | 45.32461 | 7.46512 | 34973 ft | 452 kts | 149° |
| 2026-05-05 15:04 | 45.27554 | 7.52130 | 34998 ft | 454 kts | 149° |
| 2026-05-05 15:05 | 45.20187 | 7.60656 | 34990 ft | 456 kts | 148° |
| 2026-05-05 15:06 | 45.15288 | 7.66341 | 34990 ft | 455 kts | 148° |
| 2026-05-05 15:06 | 45.10423 | 7.71973 | 34971 ft | 454 kts | 148° |
| 2026-05-05 15:07 | 45.05531 | 7.77621 | 34986 ft | 454 kts | 148° |
| 2026-05-05 15:07 | 45.00633 | 7.83261 | 34983 ft | 454 kts | 148° |
| 2026-05-05 15:08 | 44.95736 | 7.88886 | 34975 ft | 454 kts | 148° |
| 2026-05-05 15:08 | 44.90865 | 7.94469 | 34964 ft | 454 kts | 148° |
| 2026-05-05 15:09 | 44.85956 | 8.00084 | 34972 ft | 454 kts | 148° |
| 2026-05-05 15:09 | 44.81046 | 8.05688 | 34964 ft | 454 kts | 149° |
| 2026-05-05 15:10 | 44.76130 | 8.11286 | 34968 ft | 455 kts | 149° |
| 2026-05-05 15:10 | 44.71237 | 8.16843 | 34968 ft | 455 kts | 149° |
| 2026-05-05 15:11 | 44.66306 | 8.22434 | 34960 ft | 456 kts | 149° |
| 2026-05-05 15:11 | 44.61352 | 8.28034 | 34965 ft | 458 kts | 149° |
| 2026-05-05 15:12 | 44.56387 | 8.33637 | 34959 ft | 459 kts | 149° |
| 2026-05-05 15:12 | 44.51401 | 8.39250 | 34958 ft | 460 kts | 149° |
| 2026-05-05 15:13 | 44.46439 | 8.44825 | 34979 ft | 461 kts | 149° |
| 2026-05-05 15:13 | 44.41417 | 8.50452 | 34970 ft | 463 kts | 149° |
| 2026-05-05 15:14 | 44.36388 | 8.56078 | 34961 ft | 463 kts | 149° |
| 2026-05-05 15:14 | 44.31350 | 8.61699 | 34962 ft | 463 kts | 149° |
| 2026-05-05 15:15 | 44.26346 | 8.67271 | 34949 ft | 463 kts | 150° |
| 2026-05-05 15:15 | 44.21306 | 8.72869 | 34936 ft | 463 kts | 150° |
| 2026-05-05 15:16 | 44.16261 | 8.78459 | 34956 ft | 464 kts | 150° |
| 2026-05-05 15:16 | 44.11202 | 8.84053 | 34957 ft | 465 kts | 150° |
| 2026-05-05 15:16 | 44.08662 | 8.86856 | 34725 ft | 469 kts | 150° |
| 2026-05-05 15:17 | 44.06124 | 8.89649 | 34141 ft | 472 kts | 151° |
| 2026-05-05 15:17 | 44.03558 | 8.92479 | 33480 ft | 471 kts | 151° |
| 2026-05-05 15:17 | 44.00986 | 8.95312 | 32781 ft | 471 kts | 150° |
| 2026-05-05 15:17 | 43.98423 | 8.98132 | 32105 ft | 471 kts | 150° |
| 2026-05-05 15:18 | 43.95850 | 9.00956 | 31399 ft | 471 kts | 150° |
| 2026-05-05 15:18 | 43.93285 | 9.03788 | 30747 ft | 471 kts | 149° |
| 2026-05-05 15:18 | 43.90767 | 9.06678 | 30155 ft | 470 kts | 147° |
| 2026-05-05 15:18 | 43.88260 | 9.09606 | 29307 ft | 471 kts | 147° |
| 2026-05-05 15:19 | 43.85761 | 9.12530 | 28509 ft | 470 kts | 147° |
| 2026-05-05 15:19 | 43.83255 | 9.15442 | 27707 ft | 470 kts | 147° |
| 2026-05-05 15:19 | 43.80774 | 9.18305 | 26869 ft | 471 kts | 147° |
| 2026-05-05 15:19 | 43.78253 | 9.21205 | 26049 ft | 471 kts | 147° |
| 2026-05-05 15:20 | 43.75725 | 9.24109 | 25122 ft | 474 kts | 147° |
| 2026-05-05 15:20 | 43.73201 | 9.27009 | 24588 ft | 468 kts | 146° |
| 2026-05-05 15:20 | 43.70739 | 9.29845 | 24307 ft | 455 kts | 146° |
| 2026-05-05 15:20 | 43.68321 | 9.32626 | 23758 ft | 450 kts | 146° |
| 2026-05-05 15:21 | 43.65898 | 9.35399 | 22902 ft | 452 kts | 146° |
| 2026-05-05 15:21 | 43.63489 | 9.38154 | 22159 ft | 448 kts | 146° |
| 2026-05-05 15:21 | 43.61122 | 9.40858 | 21449 ft | 447 kts | 146° |
| 2026-05-05 15:21 | 43.58729 | 9.43591 | 20745 ft | 446 kts | 146° |
| 2026-05-05 15:22 | 43.56344 | 9.46312 | 20024 ft | 443 kts | 146° |
| 2026-05-05 15:22 | 43.54088 | 9.49202 | 19275 ft | 447 kts | 133° |
| 2026-05-05 15:22 | 43.52564 | 9.52967 | 18566 ft | 456 kts | 113° |
| 2026-05-05 15:22 | 43.51934 | 9.57263 | 17843 ft | 462 kts | 96° |
| 2026-05-05 15:23 | 43.52194 | 9.61685 | 17045 ft | 466 kts | 78° |
| 2026-05-05 15:23 | 43.53136 | 9.65882 | 16322 ft | 463 kts | 73° |
| 2026-05-05 15:23 | 43.54126 | 9.70086 | 15665 ft | 459 kts | 74° |
| 2026-05-05 15:23 | 43.55051 | 9.74223 | 15356 ft | 445 kts | 75° |
| 2026-05-05 15:24 | 43.55922 | 9.78290 | 14754 ft | 441 kts | 75° |
| 2026-05-05 15:24 | 43.56773 | 9.82317 | 14121 ft | 432 kts | 75° |
| 2026-05-05 15:24 | 43.57605 | 9.86252 | 13472 ft | 422 kts | 75° |
| 2026-05-05 15:24 | 43.58417 | 9.90083 | 12802 ft | 410 kts | 75° |
| 2026-05-05 15:25 | 43.59248 | 9.93782 | 12190 ft | 399 kts | 69° |
| 2026-05-05 15:25 | 43.60678 | 9.96996 | 11578 ft | 389 kts | 47° |
| 2026-05-05 15:25 | 43.62676 | 9.99375 | 11272 ft | 370 kts | 34° |
| 2026-05-05 15:25 | 43.64683 | 10.01352 | 11153 ft | 350 kts | 34° |
| 2026-05-05 15:26 | 43.66610 | 10.03270 | 11024 ft | 332 kts | 34° |
| 2026-05-05 15:26 | 43.68429 | 10.05105 | 10904 ft | 316 kts | 34° |
| 2026-05-05 15:26 | 43.70015 | 10.07094 | 10769 ft | 303 kts | 55° |
| 2026-05-05 15:26 | 43.70826 | 10.09667 | 10661 ft | 285 kts | 82° |
| 2026-05-05 15:27 | 43.70865 | 10.12334 | 10405 ft | 274 kts | 102° |
| 2026-05-05 15:27 | 43.70339 | 10.14817 | 10033 ft | 266 kts | 122° |
| 2026-05-05 15:27 | 43.69363 | 10.16909 | 9652 ft | 261 kts | 131° |
| 2026-05-05 15:27 | 43.68045 | 10.18506 | 9260 ft | 248 kts | 162° |
| 2026-05-05 15:28 | 43.66426 | 10.18921 | 8996 ft | 232 kts | 187° |
| 2026-05-05 15:28 | 43.64883 | 10.18459 | 8615 ft | 226 kts | 206° |
| 2026-05-05 15:28 | 43.63565 | 10.17324 | 8224 ft | 223 kts | 218° |
| 2026-05-05 15:28 | 43.62324 | 10.16046 | 7862 ft | 222 kts | 218° |
| 2026-05-05 15:29 | 43.61094 | 10.14779 | 7706 ft | 221 kts | 218° |
| 2026-05-05 15:29 | 43.59867 | 10.13513 | 7569 ft | 220 kts | 218° |
| 2026-05-05 15:29 | 43.58638 | 10.12248 | 7448 ft | 221 kts | 218° |
| 2026-05-05 15:29 | 43.57401 | 10.10981 | 7319 ft | 222 kts | 218° |
| 2026-05-05 15:30 | 43.56176 | 10.09727 | 7202 ft | 222 kts | 218° |
| 2026-05-05 15:30 | 43.54936 | 10.08460 | 7085 ft | 222 kts | 218° |
| 2026-05-05 15:30 | 43.53691 | 10.07189 | 6946 ft | 223 kts | 218° |
| 2026-05-05 15:30 | 43.52433 | 10.05904 | 6761 ft | 226 kts | 218° |
| 2026-05-05 15:31 | 43.51177 | 10.04623 | 6569 ft | 224 kts | 218° |
| 2026-05-05 15:31 | 43.49935 | 10.03358 | 6376 ft | 221 kts | 218° |
| 2026-05-05 15:31 | 43.48650 | 10.02230 | 6155 ft | 220 kts | 200° |
| 2026-05-05 15:31 | 43.47156 | 10.02118 | 5984 ft | 222 kts | 169° |
| 2026-05-05 15:32 | 43.45762 | 10.03043 | 5792 ft | 228 kts | 143° |
| 2026-05-05 15:32 | 43.44700 | 10.04707 | 5625 ft | 235 kts | 130° |
| 2026-05-05 15:32 | 43.43721 | 10.06530 | 5412 ft | 238 kts | 130° |
| 2026-05-05 15:32 | 43.42749 | 10.08368 | 5201 ft | 237 kts | 126° |
| 2026-05-05 15:33 | 43.42240 | 10.10525 | 4950 ft | 243 kts | 91° |
| 2026-05-05 15:33 | 43.42765 | 10.12696 | 4747 ft | 243 kts | 51° |
| 2026-05-05 15:33 | 43.44029 | 10.14194 | 4584 ft | 239 kts | 35° |
| 2026-05-05 15:33 | 43.45363 | 10.15554 | 4350 ft | 238 kts | 36° |
| 2026-05-05 15:34 | 43.46662 | 10.16907 | 4117 ft | 237 kts | 36° |
| 2026-05-05 15:34 | 43.47974 | 10.18272 | 3926 ft | 236 kts | 37° |
| 2026-05-05 15:34 | 43.49290 | 10.19639 | 3733 ft | 238 kts | 36° |
| 2026-05-05 15:34 | 43.50611 | 10.21010 | 3529 ft | 237 kts | 37° |
| 2026-05-05 15:35 | 43.51924 | 10.22371 | 3311 ft | 235 kts | 37° |
| 2026-05-05 15:35 | 43.53218 | 10.23714 | 3125 ft | 229 kts | 37° |
| 2026-05-05 15:35 | 43.54465 | 10.25008 | 2912 ft | 220 kts | 37° |
| 2026-05-05 15:35 | 43.55664 | 10.26252 | 2740 ft | 211 kts | 38° |
| 2026-05-05 15:36 | 43.56801 | 10.27431 | 2596 ft | 204 kts | 37° |
| 2026-05-05 15:36 | 43.57929 | 10.28601 | 2345 ft | 204 kts | 36° |
| 2026-05-05 15:36 | 43.59043 | 10.29757 | 2070 ft | 195 kts | 36° |
| 2026-05-05 15:36 | 43.60108 | 10.30862 | 1801 ft | 189 kts | 36° |
| 2026-05-05 15:37 | 43.61129 | 10.31920 | 1609 ft | 177 kts | 36° |
| 2026-05-05 15:37 | 43.62089 | 10.32915 | 1334 ft | 166 kts | 36° |
| 2026-05-05 15:37 | 43.62999 | 10.33858 | 1133 ft | 163 kts | 36° |
| 2026-05-05 15:37 | 43.63907 | 10.34798 | 920 ft | 164 kts | 35° |
| 2026-05-05 15:38 | 43.64832 | 10.35757 | 673 ft | 166 kts | 35° |
| 2026-05-05 15:38 | 43.65745 | 10.36701 | 483 ft | 164 kts | 34° |
| 2026-05-05 15:38 | 43.66643 | 10.37628 | 238 ft | 160 kts | 34° |
| 2026-05-05 15:38 | 43.67533 | 10.38549 | 20 ft | 159 kts | 34° |
| 2026-05-05 15:39 | 43.68330 | 10.39373 | 8 ft | 117 kts | 36° |
| 2026-05-05 15:39 | 43.68811 | 10.39871 | 7 ft | 57 kts | 37° |
| 2026-05-05 15:39 | 43.69074 | 10.40144 | 8 ft | 45 kts | 36° |
| 2026-05-05 15:39 | 43.69240 | 10.40309 | 8 ft | 16 kts | 19° |
| 2026-05-05 15:40 | 43.69314 | 10.40233 | 11 ft | 14 kts | 308° |
| 2026-05-05 15:40 | 43.69373 | 10.40129 | 10 ft | 13 kts | 313° |
| 2026-05-05 15:40 | 43.69455 | 10.40092 | 10 ft | 12 kts | 353° |
| 2026-05-05 15:40 | 43.69534 | 10.40076 | 10 ft | 12 kts | 351° |
| 2026-05-05 15:41 | 43.69625 | 10.40057 | 11 ft | 14 kts | 353° |
| 2026-05-05 15:41 | 43.69695 | 10.40099 | 11 ft | 12 kts | 58° |
| 2026-05-05 15:41 | 43.69735 | 10.40147 | 10 ft | 7 kts | 14° |
| 2026-05-05 15:41 | 43.69762 | 10.40153 | 10 ft | 0 kts | 6° |